createdAt,value
2023-01-27T00:02:22.506Z,67.92
2023-01-27T00:05:26.629Z,67.91
2023-01-27T00:08:29.939Z,67.92
2023-01-27T00:11:51.609Z,67.84
2023-01-27T00:14:54.799Z,67.89
2023-01-27T00:17:58.119Z,67.94
2023-01-27T00:21:19.700Z,67.95
2023-01-27T00:24:37.966Z,67.97
2023-01-27T00:27:41.188Z,68.04
2023-01-27T00:30:44.333Z,68.18
2023-01-27T00:33:49.582Z,68.08
2023-01-27T00:36:52.771Z,68.02
2023-01-27T00:39:55.962Z,68.00
2023-01-27T00:42:59.241Z,68.15
2023-01-27T00:46:02.970Z,68.22
2023-01-27T00:49:06.344Z,68.22
2023-01-27T00:52:09.543Z,68.15
2023-01-27T00:55:16.011Z,68.25
2023-01-27T00:58:21.372Z,68.33
2023-01-27T01:01:24.615Z,68.23
2023-01-27T01:04:28.796Z,68.22
2023-01-27T01:07:32.044Z,68.37
2023-01-27T01:10:38.849Z,68.37
2023-01-27T01:13:43.337Z,68.27
2023-01-27T01:16:46.493Z,68.31
2023-01-27T01:19:49.708Z,68.41
2023-01-27T01:22:52.953Z,68.38
2023-01-27T01:25:57.517Z,68.36
2023-01-27T01:29:00.744Z,68.37
2023-01-27T01:32:04.222Z,68.35
2023-01-27T01:35:08.309Z,68.45
2023-01-27T01:38:11.988Z,68.30
2023-01-27T01:41:18.999Z,68.40
2023-01-27T01:44:32.840Z,68.44
2023-01-27T01:47:36.249Z,68.42
2023-01-27T01:50:42.961Z,68.47
2023-01-27T01:53:50.846Z,68.51
2023-01-27T01:56:58.558Z,68.51
2023-01-27T02:00:09.475Z,68.51
2023-01-27T02:03:18.700Z,68.43
2023-01-27T02:06:22.301Z,68.48
2023-01-27T02:09:28.365Z,68.32
2023-01-27T02:12:31.739Z,68.33
2023-01-27T02:15:35.577Z,68.45
2023-01-27T02:18:43.048Z,68.41
2023-01-27T02:21:49.672Z,68.45
2023-01-27T02:25:00.327Z,68.41
2023-01-27T02:28:08.475Z,68.37
2023-01-27T02:31:12.404Z,68.40
2023-01-27T02:34:20.939Z,68.46
2023-01-27T02:37:25.296Z,68.36
2023-01-27T02:40:30.335Z,68.44
2023-01-27T02:43:33.914Z,68.33
2023-01-27T02:46:37.995Z,68.35
2023-01-27T02:49:41.360Z,68.49
2023-01-27T02:52:44.649Z,68.51
2023-01-27T02:55:48.202Z,68.39
2023-01-27T02:58:51.404Z,68.44
2023-01-27T03:02:00.169Z,68.51
2023-01-27T03:05:05.143Z,68.40
2023-01-27T03:08:08.813Z,68.35
2023-01-27T03:11:12.479Z,68.39
2023-01-27T03:14:15.794Z,68.34
2023-01-27T03:17:37.807Z,68.46
2023-01-27T03:20:42.185Z,68.27
2023-01-27T03:23:49.097Z,68.30
2023-01-27T03:26:55.722Z,68.30
2023-01-27T03:30:07.018Z,68.25
2023-01-27T03:33:10.825Z,68.28
2023-01-27T03:36:58.170Z,68.19
2023-01-27T03:40:19.839Z,68.11
2023-01-27T03:43:41.559Z,68.14
2023-01-27T03:46:45.026Z,68.25
2023-01-27T03:49:48.197Z,68.19
2023-01-27T03:53:03.654Z,68.17
2023-01-27T03:56:07.286Z,68.23
2023-01-27T03:59:10.451Z,68.26
2023-01-27T04:02:32.035Z,68.16
2023-01-27T04:05:53.743Z,68.19
2023-01-27T04:08:57.456Z,68.14
2023-01-27T04:12:04.578Z,68.16
2023-01-27T04:15:08.684Z,68.14
2023-01-27T04:18:12.113Z,68.15
2023-01-27T04:21:15.338Z,68.18
2023-01-27T04:24:24.478Z,68.08
2023-01-27T04:27:27.839Z,67.96
2023-01-27T04:30:31.111Z,67.96
2023-01-27T04:33:34.338Z,68.07
2023-01-27T04:36:37.654Z,68.11
2023-01-27T04:39:41.859Z,68.07
2023-01-27T04:42:45.123Z,68.04
2023-01-27T04:45:51.042Z,67.94
2023-01-27T04:48:54.360Z,67.91
2023-01-27T04:51:57.541Z,67.88
2023-01-27T04:55:00.720Z,67.84
2023-01-27T04:58:05.077Z,67.83
2023-01-27T05:01:08.198Z,67.93
2023-01-27T05:04:11.377Z,67.75
2023-01-27T05:07:14.775Z,67.67
2023-01-27T05:10:18.233Z,67.72
2023-01-27T05:13:21.519Z,67.63
2023-01-27T05:16:25.590Z,67.62
2023-01-27T05:19:29.117Z,67.55
2023-01-27T05:22:32.283Z,67.55
2023-01-27T05:25:35.517Z,67.45
2023-01-27T05:28:41.582Z,67.36
2023-01-27T05:31:44.949Z,67.27
2023-01-27T05:34:48.177Z,67.31
2023-01-27T05:37:51.379Z,67.16
2023-01-27T05:41:04.105Z,67.14
2023-01-27T05:44:07.363Z,67.00
2023-01-27T05:47:10.581Z,67.08
2023-01-27T05:50:13.831Z,67.18
2023-01-27T05:53:18.661Z,67.03
2023-01-27T05:56:23.322Z,66.99
2023-01-27T05:59:26.565Z,66.99
2023-01-27T06:02:29.821Z,66.83
2023-01-27T06:05:33.130Z,66.97
2023-01-27T06:08:38.001Z,66.79
2023-01-27T06:11:41.212Z,66.78
2023-01-27T06:14:44.437Z,66.76
2023-01-27T06:17:47.647Z,66.59
2023-01-27T06:20:51.102Z,66.59
2023-01-27T06:23:54.438Z,66.63
2023-01-27T06:26:57.638Z,66.58
2023-01-27T06:30:00.874Z,66.57
2023-01-27T06:33:05.039Z,66.42
2023-01-27T06:36:10.795Z,66.47
2023-01-27T06:39:14.061Z,66.61
2023-01-27T06:42:17.297Z,66.47
2023-01-27T06:45:20.583Z,66.52
2023-01-27T06:48:24.399Z,66.53
2023-01-27T06:51:27.634Z,66.53
2023-01-27T06:54:30.923Z,66.38
2023-01-27T06:57:34.797Z,66.29
2023-01-27T07:00:39.667Z,66.31
2023-01-27T07:03:44.776Z,66.39
2023-01-27T07:06:48.369Z,66.36
2023-01-27T07:09:52.964Z,66.34
2023-01-27T07:13:07.076Z,66.32
2023-01-27T07:16:10.300Z,66.31
2023-01-27T07:19:13.725Z,66.28
2023-01-27T07:22:16.889Z,66.43
2023-01-27T07:25:20.335Z,66.58
2023-01-27T07:28:24.006Z,66.64
2023-01-27T07:31:27.788Z,66.55
2023-01-27T07:34:31.045Z,66.55
2023-01-27T07:37:35.622Z,66.51
2023-01-27T07:40:40.882Z,66.41
2023-01-27T07:43:44.157Z,66.38
2023-01-27T07:46:47.461Z,66.55
2023-01-27T07:49:50.614Z,66.45
2023-01-27T07:52:53.926Z,66.58
2023-01-27T07:55:59.975Z,66.56
2023-01-27T07:59:04.520Z,66.48
2023-01-27T08:02:10.431Z,66.53
2023-01-27T08:05:13.751Z,66.50
2023-01-27T08:08:19.047Z,66.56
2023-01-27T08:11:22.383Z,66.38
2023-01-27T08:14:25.698Z,66.36
2023-01-27T08:17:29.952Z,66.43
2023-01-27T08:20:33.339Z,66.33
2023-01-27T08:23:37.037Z,66.30
2023-01-27T08:26:40.377Z,66.21
2023-01-27T08:29:43.899Z,66.24
2023-01-27T08:32:49.299Z,66.08
2023-01-27T08:35:52.651Z,66.14
2023-01-27T08:38:56.978Z,66.15
2023-01-27T08:42:00.674Z,66.06
2023-01-27T08:45:04.260Z,66.03
2023-01-27T08:48:07.591Z,65.97
2023-01-27T08:51:13.873Z,66.00
2023-01-27T08:54:17.140Z,65.95
2023-01-27T08:57:20.521Z,65.95
2023-01-27T09:00:24.355Z,65.81
2023-01-27T09:03:28.182Z,65.90
2023-01-27T09:06:31.574Z,65.96
2023-01-27T09:09:35.145Z,65.85
2023-01-27T09:12:38.602Z,65.77
2023-01-27T09:15:45.125Z,65.81
2023-01-27T09:18:49.631Z,65.70
2023-01-27T09:21:52.937Z,65.77
2023-01-27T09:24:56.309Z,65.70
2023-01-27T09:28:00.495Z,65.69
2023-01-27T09:31:05.553Z,65.66
2023-01-27T09:34:08.938Z,65.62
2023-01-27T09:37:14.158Z,65.69
2023-01-27T09:40:43.960Z,65.66
2023-01-27T09:44:02.570Z,65.71
2023-01-27T09:47:19.905Z,65.72
2023-01-27T09:50:47.198Z,65.78
2023-01-27T09:54:15.269Z,65.72
2023-01-27T09:57:26.693Z,65.71
2023-01-27T10:00:48.469Z,65.72
2023-01-27T10:04:13.041Z,65.73
2023-01-27T10:07:38.204Z,65.65
2023-01-27T10:10:50.308Z,65.58
2023-01-27T10:14:19.713Z,65.75
2023-01-27T10:17:44.762Z,65.65
2023-01-27T10:21:01.120Z,65.52
2023-01-27T10:24:59.687Z,65.57
2023-01-27T10:28:17.371Z,65.55
2023-01-27T10:31:36.039Z,65.55
2023-01-27T10:34:51.321Z,65.66
2023-01-27T10:38:20.430Z,65.63
2023-01-27T10:41:57.267Z,65.66
2023-01-27T10:45:21.402Z,65.69
2023-01-27T10:48:39.717Z,65.87
2023-01-27T10:51:50.239Z,65.82
2023-01-27T10:55:15.374Z,65.68
2023-01-27T10:58:55.329Z,65.56
2023-01-27T11:02:14.643Z,65.56
2023-01-27T11:05:30.564Z,65.51
2023-01-27T11:08:39.714Z,65.51
2023-01-27T11:11:46.008Z,65.39
2023-01-27T11:14:52.347Z,65.57
2023-01-27T11:17:59.796Z,65.53
2023-01-27T11:21:06.363Z,65.51
2023-01-27T11:24:24.083Z,65.28
2023-01-27T11:27:45.873Z,65.20
2023-01-27T11:30:59.107Z,65.22
2023-01-27T11:34:22.993Z,65.09
2023-01-27T11:37:32.424Z,64.95
2023-01-27T11:40:38.563Z,64.84
2023-01-27T11:43:42.414Z,64.67
2023-01-27T11:46:48.970Z,64.63
2023-01-27T11:49:54.120Z,64.76
2023-01-27T11:53:22.369Z,64.49
2023-01-27T11:56:27.122Z,64.37
2023-01-27T11:59:36.506Z,64.25
2023-01-27T12:02:46.290Z,64.24
2023-01-27T12:05:55.941Z,64.34
2023-01-27T12:09:00.017Z,64.24
2023-01-27T12:12:15.825Z,64.29
2023-01-27T12:15:21.116Z,64.20
2023-01-27T12:18:24.824Z,64.09
2023-01-27T12:21:48.209Z,64.07
2023-01-27T12:24:56.040Z,64.02
2023-01-27T12:28:03.187Z,63.99
2023-01-27T12:31:24.864Z,63.98
2023-01-27T12:34:56.551Z,63.93
2023-01-27T12:38:11.645Z,63.90
2023-01-27T12:41:40.476Z,63.70
2023-01-27T12:44:50.320Z,63.75
2023-01-27T12:48:01.547Z,63.69
2023-01-27T12:51:17.137Z,63.69
2023-01-27T12:54:30.271Z,63.50
2023-01-27T12:57:33.776Z,63.35
2023-01-27T13:00:39.138Z,63.18
2023-01-27T13:03:42.899Z,63.10
2023-01-27T13:06:58.710Z,63.22
2023-01-27T13:10:16.000Z,63.17
2023-01-27T13:13:29.196Z,62.93
2023-01-27T13:16:32.788Z,63.02
2023-01-27T13:19:47.090Z,62.72
2023-01-27T13:22:58.193Z,62.84
2023-01-27T13:26:04.241Z,62.67
2023-01-27T13:29:10.945Z,62.74
2023-01-27T13:32:32.363Z,62.53
2023-01-27T13:35:41.951Z,62.38
2023-01-27T13:39:05.879Z,62.19
2023-01-27T13:42:29.294Z,62.35
2023-01-27T13:45:53.435Z,62.36
2023-01-27T13:49:05.196Z,62.25
2023-01-27T13:52:11.212Z,62.25
2023-01-27T13:55:15.287Z,62.23
2023-01-27T13:58:36.750Z,62.19
2023-01-27T14:01:58.696Z,62.02
2023-01-27T14:05:02.560Z,62.18
2023-01-27T14:08:30.614Z,62.07
2023-01-27T14:11:55.600Z,61.90
2023-01-27T14:15:21.866Z,61.83
2023-01-27T14:18:30.989Z,61.95
2023-01-27T14:21:53.306Z,61.87
2023-01-27T14:25:42.051Z,61.76
2023-01-27T14:29:06.157Z,61.84
2023-01-27T14:32:18.205Z,61.92
2023-01-27T14:35:30.495Z,61.70
2023-01-27T14:38:55.700Z,61.64
2023-01-27T14:42:11.444Z,61.58
2023-01-27T14:45:35.919Z,61.43
2023-01-27T14:48:39.176Z,61.16
2023-01-27T14:51:51.450Z,60.98
2023-01-27T14:55:06.805Z,60.84
2023-01-27T14:58:48.678Z,61.01
2023-01-27T15:02:08.617Z,60.61
2023-01-27T15:05:22.469Z,60.60
2023-01-27T15:08:31.541Z,60.44
2023-01-27T15:12:01.109Z,60.46
2023-01-27T15:15:16.643Z,60.37
2023-01-27T15:18:54.640Z,60.18
2023-01-27T15:22:11.978Z,60.22
2023-01-27T15:25:19.695Z,60.18
2023-01-27T15:28:29.272Z,60.18
2023-01-27T15:31:33.476Z,60.11
2023-01-27T15:34:36.827Z,60.28
2023-01-27T15:37:55.781Z,60.32
2023-01-27T15:41:07.989Z,60.15
2023-01-27T15:44:18.829Z,60.10
2023-01-27T15:47:27.675Z,60.02
2023-01-27T15:50:33.166Z,60.07
2023-01-27T15:53:42.171Z,59.77
2023-01-27T15:56:53.660Z,59.82
2023-01-27T16:00:07.455Z,59.86
2023-01-27T16:03:33.559Z,59.71
2023-01-27T16:06:46.868Z,59.67
2023-01-27T16:09:52.200Z,59.90
2023-01-27T16:13:23.248Z,59.79
2023-01-27T16:16:35.236Z,59.79
2023-01-27T16:19:52.544Z,59.89
2023-01-27T16:23:11.483Z,59.72
2023-01-27T16:26:32.936Z,59.80
2023-01-27T16:29:45.314Z,59.90
2023-01-27T16:33:04.277Z,60.11
2023-01-27T16:36:13.464Z,60.04
2023-01-27T16:39:58.995Z,60.14
2023-01-27T16:43:08.351Z,60.23
2023-01-27T16:46:37.162Z,60.35
2023-01-27T16:49:42.057Z,60.54
2023-01-27T16:52:45.991Z,60.64
2023-01-27T16:56:07.892Z,60.88
2023-01-27T16:59:21.877Z,60.90
2023-01-27T17:02:28.200Z,61.04
2023-01-27T17:05:31.562Z,61.06
2023-01-27T17:08:46.843Z,61.13
2023-01-27T17:11:50.457Z,61.13
2023-01-27T17:14:54.091Z,61.23
2023-01-27T17:17:58.165Z,61.29
2023-01-27T17:21:02.203Z,61.34
2023-01-27T17:24:36.948Z,61.28
2023-01-27T17:27:43.587Z,61.42
2023-01-27T17:30:48.141Z,61.48
2023-01-27T17:33:59.857Z,61.53
2023-01-27T17:37:32.203Z,61.59
2023-01-27T17:40:39.851Z,61.61
2023-01-27T17:43:44.670Z,61.67
2023-01-27T17:46:47.940Z,61.77
2023-01-27T17:49:51.618Z,61.74
2023-01-27T17:52:57.189Z,61.69
2023-01-27T17:56:10.177Z,61.62
2023-01-27T17:59:20.134Z,61.59
2023-01-27T18:02:30.442Z,61.66
2023-01-27T18:05:34.246Z,61.55
2023-01-27T18:08:37.848Z,61.52
2023-01-27T18:11:51.919Z,61.59
2023-01-27T18:14:55.180Z,61.61
2023-01-27T18:18:00.480Z,61.48
2023-01-27T18:21:08.404Z,61.29
2023-01-27T18:24:20.799Z,61.28
2023-01-27T18:27:27.430Z,61.16
2023-01-27T18:30:31.119Z,61.16
2023-01-27T18:33:34.369Z,61.23
2023-01-27T18:36:39.114Z,61.07
2023-01-27T18:39:42.452Z,60.93
2023-01-27T18:42:52.059Z,61.00
2023-01-27T18:45:55.595Z,60.97
2023-01-27T18:49:00.015Z,60.89
2023-01-27T18:52:19.320Z,60.92
2023-01-27T18:55:28.083Z,60.98
2023-01-27T18:58:31.315Z,61.05
2023-01-27T19:01:36.231Z,60.99
2023-01-27T19:04:39.765Z,61.05
2023-01-27T19:07:43.198Z,61.05
2023-01-27T19:10:47.795Z,61.20
2023-01-27T19:13:51.202Z,61.14
2023-01-27T19:16:54.708Z,61.29
2023-01-27T19:19:58.170Z,61.24
2023-01-27T19:23:01.526Z,61.32
2023-01-27T19:26:10.094Z,61.36
2023-01-27T19:29:14.434Z,61.36
2023-01-27T19:32:17.772Z,61.30
2023-01-27T19:35:25.691Z,61.41
2023-01-27T19:38:29.957Z,61.40
2023-01-27T19:41:34.283Z,61.45
2023-01-27T19:44:37.428Z,61.59
2023-01-27T19:47:44.036Z,61.56
2023-01-27T19:50:47.564Z,61.49
2023-01-27T19:53:50.771Z,61.49
2023-01-27T19:56:54.400Z,61.53
2023-01-27T19:59:57.723Z,61.68
2023-01-27T20:03:01.949Z,61.68
2023-01-27T20:06:14.508Z,61.66
2023-01-27T20:09:17.828Z,61.84
2023-01-27T20:12:21.110Z,61.85
2023-01-27T20:15:27.151Z,61.82
2023-01-27T20:18:31.313Z,61.90
2023-01-27T20:21:34.728Z,61.84
2023-01-27T20:24:38.126Z,61.79
2023-01-27T20:27:42.621Z,61.87
2023-01-27T20:30:45.996Z,61.90
2023-01-27T20:33:52.936Z,61.84
2023-01-27T20:36:56.642Z,61.94
2023-01-27T20:40:00.041Z,61.81
2023-01-27T20:43:03.565Z,61.92
2023-01-27T20:46:11.809Z,61.93
2023-01-27T20:49:15.147Z,62.07
2023-01-27T20:52:18.530Z,61.97
2023-01-27T20:55:22.501Z,62.01
2023-01-27T20:58:27.058Z,62.07
2023-01-27T21:01:30.608Z,62.21
2023-01-27T21:04:34.017Z,62.17
2023-01-27T21:07:37.378Z,62.40
2023-01-27T21:10:40.700Z,62.48
2023-01-27T21:13:44.608Z,62.66
2023-01-27T21:16:48.236Z,62.75
2023-01-27T21:19:51.583Z,62.77
2023-01-27T21:22:55.176Z,62.92
2023-01-27T21:26:09.255Z,63.20
2023-01-27T21:29:12.764Z,63.21
2023-01-27T21:32:16.263Z,63.37
2023-01-27T21:35:19.671Z,63.38
2023-01-27T21:38:23.034Z,63.46
2023-01-27T21:41:45.365Z,63.62
2023-01-27T21:45:07.421Z,63.75
2023-01-27T21:48:11.719Z,63.78
2023-01-27T21:51:15.314Z,63.97
2023-01-27T21:54:18.576Z,64.00
2023-01-27T21:57:21.867Z,63.95
2023-01-27T22:00:27.835Z,64.11
2023-01-27T22:03:31.277Z,64.14
2023-01-27T22:06:34.738Z,64.13
2023-01-27T22:09:38.923Z,64.10
2023-01-27T22:12:42.651Z,64.19
2023-01-27T22:15:51.953Z,64.36
2023-01-27T22:18:55.312Z,64.35
2023-01-27T22:21:58.614Z,64.28
2023-01-27T22:25:02.114Z,64.36
2023-01-27T22:28:05.559Z,64.44
2023-01-27T22:31:08.912Z,64.43
2023-01-27T22:34:12.344Z,64.55
2023-01-27T22:37:15.638Z,64.56
2023-01-27T22:40:18.944Z,64.63
2023-01-27T22:43:22.229Z,64.66
2023-01-27T22:46:25.880Z,64.75
2023-01-27T22:49:29.173Z,64.77
2023-01-27T22:52:36.698Z,64.84
2023-01-27T22:55:40.271Z,64.92
2023-01-27T22:58:43.511Z,64.92
2023-01-27T23:01:46.877Z,64.99
2023-01-27T23:04:50.214Z,64.95
2023-01-27T23:07:53.631Z,65.01
2023-01-27T23:11:01.507Z,65.09
2023-01-27T23:14:04.873Z,65.16
2023-01-27T23:17:08.374Z,65.00
2023-01-27T23:20:12.266Z,65.03
2023-01-27T23:23:16.295Z,65.16
2023-01-27T23:26:19.752Z,65.14
2023-01-27T23:29:25.308Z,65.19
2023-01-27T23:32:29.147Z,65.30
2023-01-27T23:35:32.395Z,65.22
2023-01-27T23:38:36.932Z,65.26
2023-01-27T23:41:40.374Z,65.45
2023-01-27T23:44:43.719Z,65.31
2023-01-27T23:47:46.952Z,65.42
2023-01-27T23:50:50.688Z,65.42
2023-01-27T23:53:54.081Z,65.49
2023-01-27T23:56:57.298Z,65.41
